sensor_id;sensor_type;location;lat;lon;timestamp;temperature;humidity
18712;DHT22;9485;49.386;8.674;2022-07-21T00:00:08;23.90;78.60
18712;DHT22;9485;49.386;8.674;2022-07-21T00:05:29;23.90;78.90
18712;DHT22;9485;49.386;8.674;2022-07-21T00:10:50;23.80;78.90
18712;DHT22;9485;49.386;8.674;2022-07-21T00:16:12;23.80;79.30
18712;DHT22;9485;49.386;8.674;2022-07-21T00:21:34;23.80;79.50
18712;DHT22;9485;49.386;8.674;2022-07-21T00:26:55;23.80;79.50
18712;DHT22;9485;49.386;8.674;2022-07-21T00:32:17;23.80;79.80
18712;DHT22;9485;49.386;8.674;2022-07-21T00:37:38;23.80;80.10
18712;DHT22;9485;49.386;8.674;2022-07-21T00:42:59;23.80;80.20
18712;DHT22;9485;49.386;8.674;2022-07-21T00:48:22;23.80;80.20
18712;DHT22;9485;49.386;8.674;2022-07-21T00:53:43;23.70;80.50
18712;DHT22;9485;49.386;8.674;2022-07-21T00:59:04;23.70;80.50
18712;DHT22;9485;49.386;8.674;2022-07-21T01:04:26;23.70;80.60
18712;DHT22;9485;49.386;8.674;2022-07-21T01:09:46;23.70;80.90
18712;DHT22;9485;49.386;8.674;2022-07-21T01:15:09;23.80;81.10
18712;DHT22;9485;49.386;8.674;2022-07-21T01:20:34;23.80;81.30
18712;DHT22;9485;49.386;8.674;2022-07-21T01:25:56;23.90;81.30
18712;DHT22;9485;49.386;8.674;2022-07-21T01:31:18;23.90;81.40
18712;DHT22;9485;49.386;8.674;2022-07-21T01:36:39;23.90;81.20
18712;DHT22;9485;49.386;8.674;2022-07-21T01:42:01;23.90;81.30
18712;DHT22;9485;49.386;8.674;2022-07-21T01:47:22;23.90;81.40
18712;DHT22;9485;49.386;8.674;2022-07-21T01:52:43;23.90;81.50
18712;DHT22;9485;49.386;8.674;2022-07-21T01:58:04;23.90;81.70
18712;DHT22;9485;49.386;8.674;2022-07-21T02:03:25;23.90;81.70
18712;DHT22;9485;49.386;8.674;2022-07-21T02:08:46;23.90;81.60
18712;DHT22;9485;49.386;8.674;2022-07-21T02:14:08;23.90;81.80
18712;DHT22;9485;49.386;8.674;2022-07-21T02:19:29;23.90;81.80
18712;DHT22;9485;49.386;8.674;2022-07-21T02:24:49;23.90;81.70
18712;DHT22;9485;49.386;8.674;2022-07-21T02:30:12;24.00;81.90
18712;DHT22;9485;49.386;8.674;2022-07-21T02:35:34;24.00;82.20
18712;DHT22;9485;49.386;8.674;2022-07-21T02:40:54;24.00;82.30
18712;DHT22;9485;49.386;8.674;2022-07-21T02:46:16;24.00;82.30
18712;DHT22;9485;49.386;8.674;2022-07-21T02:51:37;24.00;82.30
18712;DHT22;9485;49.386;8.674;2022-07-21T02:56:58;24.10;82.10
18712;DHT22;9485;49.386;8.674;2022-07-21T03:02:20;24.10;82.40
18712;DHT22;9485;49.386;8.674;2022-07-21T03:07:40;24.10;82.40
18712;DHT22;9485;49.386;8.674;2022-07-21T03:13:00;24.00;82.60
18712;DHT22;9485;49.386;8.674;2022-07-21T03:18:23;24.10;82.90
18712;DHT22;9485;49.386;8.674;2022-07-21T03:23:44;24.10;82.70
18712;DHT22;9485;49.386;8.674;2022-07-21T03:29:05;24.10;82.70
18712;DHT22;9485;49.386;8.674;2022-07-21T03:34:27;24.10;82.50
18712;DHT22;9485;49.386;8.674;2022-07-21T03:39:48;24.10;82.50
18712;DHT22;9485;49.386;8.674;2022-07-21T03:45:09;24.00;82.50
18712;DHT22;9485;49.386;8.674;2022-07-21T03:50:32;24.00;82.90
18712;DHT22;9485;49.386;8.674;2022-07-21T03:55:53;24.00;83.10
18712;DHT22;9485;49.386;8.674;2022-07-21T04:01:13;24.00;83.00
18712;DHT22;9485;49.386;8.674;2022-07-21T04:06:36;24.00;83.60
18712;DHT22;9485;49.386;8.674;2022-07-21T04:11:57;24.00;83.10
18712;DHT22;9485;49.386;8.674;2022-07-21T04:17:17;23.90;83.10
18712;DHT22;9485;49.386;8.674;2022-07-21T04:22:39;23.90;83.20
18712;DHT22;9485;49.386;8.674;2022-07-21T04:28:01;24.00;83.20
18712;DHT22;9485;49.386;8.674;2022-07-21T04:33:21;23.90;83.30
18712;DHT22;9485;49.386;8.674;2022-07-21T04:38:43;23.90;83.20
18712;DHT22;9485;49.386;8.674;2022-07-21T04:44:04;24.00;83.40
18712;DHT22;9485;49.386;8.674;2022-07-21T04:49:25;24.00;83.40
18712;DHT22;9485;49.386;8.674;2022-07-21T04:54:47;24.00;83.50
18712;DHT22;9485;49.386;8.674;2022-07-21T05:00:09;24.10;83.60
18712;DHT22;9485;49.386;8.674;2022-07-21T05:05:56;24.10;83.40
18712;DHT22;9485;49.386;8.674;2022-07-21T05:11:18;24.20;83.40
18712;DHT22;9485;49.386;8.674;2022-07-21T05:16:38;24.20;83.30
18712;DHT22;9485;49.386;8.674;2022-07-21T05:21:59;24.30;83.20
18712;DHT22;9485;49.386;8.674;2022-07-21T05:27:21;24.30;83.00
18712;DHT22;9485;49.386;8.674;2022-07-21T05:32:42;24.30;83.20
18712;DHT22;9485;49.386;8.674;2022-07-21T05:38:03;24.40;83.50
18712;DHT22;9485;49.386;8.674;2022-07-21T05:43:26;24.50;83.50
18712;DHT22;9485;49.386;8.674;2022-07-21T05:48:47;24.60;83.40
18712;DHT22;9485;49.386;8.674;2022-07-21T05:54:07;24.80;83.40
18712;DHT22;9485;49.386;8.674;2022-07-21T05:59:29;24.90;83.00
18712;DHT22;9485;49.386;8.674;2022-07-21T06:04:50;25.00;82.60
18712;DHT22;9485;49.386;8.674;2022-07-21T06:10:11;25.00;82.20
18712;DHT22;9485;49.386;8.674;2022-07-21T06:15:33;25.10;81.90
18712;DHT22;9485;49.386;8.674;2022-07-21T06:20:54;25.10;81.40
18712;DHT22;9485;49.386;8.674;2022-07-21T06:26:15;25.10;81.40
18712;DHT22;9485;49.386;8.674;2022-07-21T06:31:37;25.10;81.40
18712;DHT22;9485;49.386;8.674;2022-07-21T06:36:58;25.20;80.90
18712;DHT22;9485;49.386;8.674;2022-07-21T06:42:18;25.20;81.00
18712;DHT22;9485;49.386;8.674;2022-07-21T06:47:40;25.30;80.60
18712;DHT22;9485;49.386;8.674;2022-07-21T06:53:02;25.40;79.80
18712;DHT22;9485;49.386;8.674;2022-07-21T06:58:23;25.50;80.00
18712;DHT22;9485;49.386;8.674;2022-07-21T07:03:46;25.70;79.70
18712;DHT22;9485;49.386;8.674;2022-07-21T07:09:07;25.80;78.50
18712;DHT22;9485;49.386;8.674;2022-07-21T07:14:27;25.90;78.60
18712;DHT22;9485;49.386;8.674;2022-07-21T07:19:49;26.10;78.90
18712;DHT22;9485;49.386;8.674;2022-07-21T07:25:10;26.40;78.50
18712;DHT22;9485;49.386;8.674;2022-07-21T07:30:31;26.60;77.80
18712;DHT22;9485;49.386;8.674;2022-07-21T07:35:53;26.80;77.10
18712;DHT22;9485;49.386;8.674;2022-07-21T07:41:15;26.80;75.90
18712;DHT22;9485;49.386;8.674;2022-07-21T07:46:36;26.80;75.10
18712;DHT22;9485;49.386;8.674;2022-07-21T07:51:58;26.60;75.00
18712;DHT22;9485;49.386;8.674;2022-07-21T07:57:18;26.50;74.40
18712;DHT22;9485;49.386;8.674;2022-07-21T08:02:40;26.40;76.50
18712;DHT22;9485;49.386;8.674;2022-07-21T08:08:02;26.90;78.90
18712;DHT22;9485;49.386;8.674;2022-07-21T08:13:23;27.80;78.40
18712;DHT22;9485;49.386;8.674;2022-07-21T08:18:44;28.60;75.90
18712;DHT22;9485;49.386;8.674;2022-07-21T08:24:06;29.10;73.50
18712;DHT22;9485;49.386;8.674;2022-07-21T08:29:28;29.40;72.10
18712;DHT22;9485;49.386;8.674;2022-07-21T08:34:49;29.70;71.30
18712;DHT22;9485;49.386;8.674;2022-07-21T08:40:11;29.80;70.00
18712;DHT22;9485;49.386;8.674;2022-07-21T08:45:31;29.90;68.70
18712;DHT22;9485;49.386;8.674;2022-07-21T08:50:52;29.80;69.00
18712;DHT22;9485;49.386;8.674;2022-07-21T08:56:15;29.80;68.10
18712;DHT22;9485;49.386;8.674;2022-07-21T09:01:35;29.60;67.00
18712;DHT22;9485;49.386;8.674;2022-07-21T09:06:58;29.60;69.20
18712;DHT22;9485;49.386;8.674;2022-07-21T09:12:21;29.90;67.70
18712;DHT22;9485;49.386;8.674;2022-07-21T09:17:42;30.20;66.70
18712;DHT22;9485;49.386;8.674;2022-07-21T09:23:04;30.30;66.00
18712;DHT22;9485;49.386;8.674;2022-07-21T09:28:29;30.10;64.80
18712;DHT22;9485;49.386;8.674;2022-07-21T09:33:50;29.90;64.30
18712;DHT22;9485;49.386;8.674;2022-07-21T09:39:11;29.60;65.80
18712;DHT22;9485;49.386;8.674;2022-07-21T09:44:36;29.60;67.30
18712;DHT22;9485;49.386;8.674;2022-07-21T09:49:57;29.90;67.30
18712;DHT22;9485;49.386;8.674;2022-07-21T09:55:19;30.40;67.00
18712;DHT22;9485;49.386;8.674;2022-07-21T10:00:41;30.90;67.00
18712;DHT22;9485;49.386;8.674;2022-07-21T10:06:01;31.40;65.20
18712;DHT22;9485;49.386;8.674;2022-07-21T10:11:23;31.80;64.20
18712;DHT22;9485;49.386;8.674;2022-07-21T10:16:46;32.00;64.10
18712;DHT22;9485;49.386;8.674;2022-07-21T10:22:12;32.40;62.70
18712;DHT22;9485;49.386;8.674;2022-07-21T10:28:16;32.80;60.80
18712;DHT22;9485;49.386;8.674;2022-07-21T10:33:54;33.30;58.40
18712;DHT22;9485;49.386;8.674;2022-07-21T10:39:23;33.60;58.00
18712;DHT22;9485;49.386;8.674;2022-07-21T10:44:47;33.60;56.60
18712;DHT22;9485;49.386;8.674;2022-07-21T10:50:07;33.30;57.80
18712;DHT22;9485;49.386;8.674;2022-07-21T10:55:29;33.20;59.00
18712;DHT22;9485;49.386;8.674;2022-07-21T11:00:53;33.20;58.50
18712;DHT22;9485;49.386;8.674;2022-07-21T11:06:18;33.20;58.40
18712;DHT22;9485;49.386;8.674;2022-07-21T11:11:57;33.30;58.10
18712;DHT22;9485;49.386;8.674;2022-07-21T11:17:29;33.60;54.50
18712;DHT22;9485;49.386;8.674;2022-07-21T11:22:52;33.70;54.40
18712;DHT22;9485;49.386;8.674;2022-07-21T11:28:17;34.00;56.90
18712;DHT22;9485;49.386;8.674;2022-07-21T11:33:41;34.20;54.70
18712;DHT22;9485;49.386;8.674;2022-07-21T11:39:05;34.30;54.70
18712;DHT22;9485;49.386;8.674;2022-07-21T11:44:28;34.20;54.20
18712;DHT22;9485;49.386;8.674;2022-07-21T11:49:52;34.00;54.70
18712;DHT22;9485;49.386;8.674;2022-07-21T11:55:14;33.70;53.80
18712;DHT22;9485;49.386;8.674;2022-07-21T12:00:34;33.40;55.00
18712;DHT22;9485;49.386;8.674;2022-07-21T12:05:56;33.10;54.90
18712;DHT22;9485;49.386;8.674;2022-07-21T12:11:17;32.80;55.20
18712;DHT22;9485;49.386;8.674;2022-07-21T12:16:47;32.50;56.30
18712;DHT22;9485;49.386;8.674;2022-07-21T12:22:11;32.40;55.10
18712;DHT22;9485;49.386;8.674;2022-07-21T12:27:32;32.50;56.80
18712;DHT22;9485;49.386;8.674;2022-07-21T12:32:53;32.80;57.30
18712;DHT22;9485;49.386;8.674;2022-07-21T12:38:16;33.20;58.30
18712;DHT22;9485;49.386;8.674;2022-07-21T12:43:38;33.60;57.30
18712;DHT22;9485;49.386;8.674;2022-07-21T12:49:03;33.80;55.40
18712;DHT22;9485;49.386;8.674;2022-07-21T12:54:26;33.80;54.20
18712;DHT22;9485;49.386;8.674;2022-07-21T12:59:47;33.80;55.40
18712;DHT22;9485;49.386;8.674;2022-07-21T13:05:08;33.90;56.20
18712;DHT22;9485;49.386;8.674;2022-07-21T13:10:30;34.10;56.20
18712;DHT22;9485;49.386;8.674;2022-07-21T13:15:51;34.50;55.00
18712;DHT22;9485;49.386;8.674;2022-07-21T13:21:12;34.80;55.40
18712;DHT22;9485;49.386;8.674;2022-07-21T13:26:34;35.10;55.70
18712;DHT22;9485;49.386;8.674;2022-07-21T13:31:55;35.40;54.70
18712;DHT22;9485;49.386;8.674;2022-07-21T13:37:15;35.60;54.80
18712;DHT22;9485;49.386;8.674;2022-07-21T13:42:37;35.60;54.50
18712;DHT22;9485;49.386;8.674;2022-07-21T13:47:58;35.80;54.00
18712;DHT22;9485;49.386;8.674;2022-07-21T13:53:19;36.00;55.00
18712;DHT22;9485;49.386;8.674;2022-07-21T13:58:41;36.40;53.30
18712;DHT22;9485;49.386;8.674;2022-07-21T14:04:02;36.60;51.70
18712;DHT22;9485;49.386;8.674;2022-07-21T14:09:22;36.70;52.30
18712;DHT22;9485;49.386;8.674;2022-07-21T14:14:45;36.70;51.50
18712;DHT22;9485;49.386;8.674;2022-07-21T14:20:07;36.70;50.40
18712;DHT22;9485;49.386;8.674;2022-07-21T14:25:28;36.50;49.40
18712;DHT22;9485;49.386;8.674;2022-07-21T14:30:51;36.10;50.10
18712;DHT22;9485;49.386;8.674;2022-07-21T14:36:12;35.90;50.40
18712;DHT22;9485;49.386;8.674;2022-07-21T14:41:33;35.80;50.70
18712;DHT22;9485;49.386;8.674;2022-07-21T14:46:55;35.50;49.30
18712;DHT22;9485;49.386;8.674;2022-07-21T14:52:17;35.10;49.40
18712;DHT22;9485;49.386;8.674;2022-07-21T14:57:37;34.70;49.80
18712;DHT22;9485;49.386;8.674;2022-07-21T15:03:00;34.40;50.10
18712;DHT22;9485;49.386;8.674;2022-07-21T15:08:20;34.00;50.00
18712;DHT22;9485;49.386;8.674;2022-07-21T15:13:41;33.80;51.20
18712;DHT22;9485;49.386;8.674;2022-07-21T15:19:03;33.60;51.20
18712;DHT22;9485;49.386;8.674;2022-07-21T15:24:24;33.40;51.00
18712;DHT22;9485;49.386;8.674;2022-07-21T15:29:44;33.20;51.90
18712;DHT22;9485;49.386;8.674;2022-07-21T15:35:07;33.00;51.90
18712;DHT22;9485;49.386;8.674;2022-07-21T15:40:29;32.90;51.60
18712;DHT22;9485;49.386;8.674;2022-07-21T15:45:51;32.70;52.40
18712;DHT22;9485;49.386;8.674;2022-07-21T15:51:12;32.60;52.40
18712;DHT22;9485;49.386;8.674;2022-07-21T15:56:33;32.50;52.30
18712;DHT22;9485;49.386;8.674;2022-07-21T16:01:54;32.40;52.30
18712;DHT22;9485;49.386;8.674;2022-07-21T16:07:16;32.30;52.80
18712;DHT22;9485;49.386;8.674;2022-07-21T16:12:37;32.20;52.10
18712;DHT22;9485;49.386;8.674;2022-07-21T16:17:57;32.20;52.70
18712;DHT22;9485;49.386;8.674;2022-07-21T16:23:19;32.20;53.50
18712;DHT22;9485;49.386;8.674;2022-07-21T16:28:40;32.20;52.30
18712;DHT22;9485;49.386;8.674;2022-07-21T16:34:00;32.10;52.60
18712;DHT22;9485;49.386;8.674;2022-07-21T16:39:22;32.00;52.60
18712;DHT22;9485;49.386;8.674;2022-07-21T16:44:43;31.80;52.30
18712;DHT22;9485;49.386;8.674;2022-07-21T16:50:05;31.70;52.90
18712;DHT22;9485;49.386;8.674;2022-07-21T16:55:27;31.60;52.60
18712;DHT22;9485;49.386;8.674;2022-07-21T17:00:48;31.50;52.40
18712;DHT22;9485;49.386;8.674;2022-07-21T17:06:09;31.50;53.10
18712;DHT22;9485;49.386;8.674;2022-07-21T17:11:31;31.50;53.00
18712;DHT22;9485;49.386;8.674;2022-07-21T17:16:51;31.40;53.00
18712;DHT22;9485;49.386;8.674;2022-07-21T17:22:12;31.40;53.30
18712;DHT22;9485;49.386;8.674;2022-07-21T17:27:35;31.40;53.10
18712;DHT22;9485;49.386;8.674;2022-07-21T17:32:56;31.40;53.00
18712;DHT22;9485;49.386;8.674;2022-07-21T17:38:17;31.30;53.40
18712;DHT22;9485;49.386;8.674;2022-07-21T17:43:40;31.20;53.40
18712;DHT22;9485;49.386;8.674;2022-07-21T17:49:01;31.10;52.70
18712;DHT22;9485;49.386;8.674;2022-07-21T17:54:22;31.00;53.30
18712;DHT22;9485;49.386;8.674;2022-07-21T17:59:45;30.90;53.20
18712;DHT22;9485;49.386;8.674;2022-07-21T18:05:06;30.80;53.10
18712;DHT22;9485;49.386;8.674;2022-07-21T18:10:27;30.70;54.00
18712;DHT22;9485;49.386;8.674;2022-07-21T18:15:49;30.60;53.90
18712;DHT22;9485;49.386;8.674;2022-07-21T18:21:10;30.50;54.10
18712;DHT22;9485;49.386;8.674;2022-07-21T18:26:31;30.40;54.50
18712;DHT22;9485;49.386;8.674;2022-07-21T18:31:53;30.20;54.30
18712;DHT22;9485;49.386;8.674;2022-07-21T18:37:14;30.10;54.70
18712;DHT22;9485;49.386;8.674;2022-07-21T18:42:34;30.00;55.20
18712;DHT22;9485;49.386;8.674;2022-07-21T18:47:56;29.90;55.00
18712;DHT22;9485;49.386;8.674;2022-07-21T18:53:17;29.70;55.40
18712;DHT22;9485;49.386;8.674;2022-07-21T18:58:38;29.60;55.50
18712;DHT22;9485;49.386;8.674;2022-07-21T19:04:00;29.40;55.80
18712;DHT22;9485;49.386;8.674;2022-07-21T19:09:21;29.20;56.00
18712;DHT22;9485;49.386;8.674;2022-07-21T19:14:41;29.00;56.60
18712;DHT22;9485;49.386;8.674;2022-07-21T19:20:05;28.80;56.80
18712;DHT22;9485;49.386;8.674;2022-07-21T19:25:26;28.70;56.80
18712;DHT22;9485;49.386;8.674;2022-07-21T19:30:46;28.50;56.80
18712;DHT22;9485;49.386;8.674;2022-07-21T19:36:09;28.30;57.60
18712;DHT22;9485;49.386;8.674;2022-07-21T19:41:29;28.10;57.30
18712;DHT22;9485;49.386;8.674;2022-07-21T19:46:50;28.00;57.80
18712;DHT22;9485;49.386;8.674;2022-07-21T19:52:12;27.80;57.70
18712;DHT22;9485;49.386;8.674;2022-07-21T19:57:33;27.70;58.20
18712;DHT22;9485;49.386;8.674;2022-07-21T20:02:53;27.50;58.60
18712;DHT22;9485;49.386;8.674;2022-07-21T20:08:15;27.40;59.00
18712;DHT22;9485;49.386;8.674;2022-07-21T20:13:36;27.30;58.70
18712;DHT22;9485;49.386;8.674;2022-07-21T20:18:57;27.10;59.10
18712;DHT22;9485;49.386;8.674;2022-07-21T20:24:19;27.00;59.20
18712;DHT22;9485;49.386;8.674;2022-07-21T20:29:40;26.90;59.60
18712;DHT22;9485;49.386;8.674;2022-07-21T20:35:01;26.80;60.00
18712;DHT22;9485;49.386;8.674;2022-07-21T20:40:24;26.60;59.70
18712;DHT22;9485;49.386;8.674;2022-07-21T20:45:44;26.50;60.00
18712;DHT22;9485;49.386;8.674;2022-07-21T20:51:05;26.40;60.50
18712;DHT22;9485;49.386;8.674;2022-07-21T20:56:27;26.20;61.20
18712;DHT22;9485;49.386;8.674;2022-07-21T21:01:48;26.10;61.10
18712;DHT22;9485;49.386;8.674;2022-07-21T21:07:08;25.90;61.20
18712;DHT22;9485;49.386;8.674;2022-07-21T21:12:30;25.80;61.60
18712;DHT22;9485;49.386;8.674;2022-07-21T21:17:51;25.70;61.40
18712;DHT22;9485;49.386;8.674;2022-07-21T21:23:12;25.60;61.50
18712;DHT22;9485;49.386;8.674;2022-07-21T21:28:35;25.50;61.50
18712;DHT22;9485;49.386;8.674;2022-07-21T21:33:56;25.50;61.60
18712;DHT22;9485;49.386;8.674;2022-07-21T21:39:18;25.50;61.60
18712;DHT22;9485;49.386;8.674;2022-07-21T21:44:40;25.40;61.60
18712;DHT22;9485;49.386;8.674;2022-07-21T21:50:01;25.50;61.60
18712;DHT22;9485;49.386;8.674;2022-07-21T21:55:22;25.40;61.50
18712;DHT22;9485;49.386;8.674;2022-07-21T22:00:45;25.40;61.30
18712;DHT22;9485;49.386;8.674;2022-07-21T22:06:06;25.40;61.30
18712;DHT22;9485;49.386;8.674;2022-07-21T22:11:26;25.30;61.10
18712;DHT22;9485;49.386;8.674;2022-07-21T22:16:48;25.30;61.30
18712;DHT22;9485;49.386;8.674;2022-07-21T22:22:09;25.20;60.70
18712;DHT22;9485;49.386;8.674;2022-07-21T22:27:29;25.20;61.20
18712;DHT22;9485;49.386;8.674;2022-07-21T22:32:52;25.10;61.40
18712;DHT22;9485;49.386;8.674;2022-07-21T22:38:12;25.10;61.40
18712;DHT22;9485;49.386;8.674;2022-07-21T22:43:33;25.00;61.50
18712;DHT22;9485;49.386;8.674;2022-07-21T22:48:55;24.90;62.20
18712;DHT22;9485;49.386;8.674;2022-07-21T22:54:16;24.80;62.30
18712;DHT22;9485;49.386;8.674;2022-07-21T22:59:36;24.70;62.70
18712;DHT22;9485;49.386;8.674;2022-07-21T23:04:59;24.60;63.00
18712;DHT22;9485;49.386;8.674;2022-07-21T23:10:21;24.60;63.30
18712;DHT22;9485;49.386;8.674;2022-07-21T23:15:45;24.50;63.50
18712;DHT22;9485;49.386;8.674;2022-07-21T23:21:07;24.40;63.80
18712;DHT22;9485;49.386;8.674;2022-07-21T23:26:28;24.30;64.10
18712;DHT22;9485;49.386;8.674;2022-07-21T23:31:49;24.30;65.30
18712;DHT22;9485;49.386;8.674;2022-07-21T23:37:10;24.10;64.60
18712;DHT22;9485;49.386;8.674;2022-07-21T23:42:31;24.00;64.90
18712;DHT22;9485;49.386;8.674;2022-07-21T23:47:52;23.90;65.10
18712;DHT22;9485;49.386;8.674;2022-07-21T23:53:14;23.90;65.40
18712;DHT22;9485;49.386;8.674;2022-07-21T23:58:34;23.80;65.70
